Weather  for  Safford, Safford Municipal Airport  -  United States    United States

17 °C (63 °F)

Current METAR for Safford, Safford Municipal Airport is :

KSAD 210251Z AUTO 29007KT 10SM CLR 17/M11 A2995 RMK AO2 SLP121 T01671106 53008


This is a report for Safford, Safford Municipal Airport - United States.
The report was made 11 minutes ago, at 02:51 UTC .
The wind was blowing at a speed of 3.6 meters per second (8.1 miles per hour) from west/northwest (290°).
The temperature was 17 °C (63 °F), with a dew-point at -11 °C (12 °F).
The atmospheric pressure was 1014 hPa (29.95 inHg).
The relative humidity was 13.6%.
The sky was clear.
The overall visibility was 16.1 kilometers (10.0 miles).


Country :   A   B   C   D   E   F   G   H   I   J   K   L   M   N   O   P   Q   R   S   T   U   V   W   Y   Z


Site Info  |  Disclaimer  |  Credits  |  Privacy
Contact us  |  Add to favorites
© 2013-2018 METARs - All rights reserved